Time;durP1;ratioP1;P1;durP2;ratioP2;P2;SDS_P1;SDS_P2;PMS_P1;PMS_P2;Temp;Humidity;BMP_temperature;BMP_pressure;BME280_temperature;BME280_humidity;BME280_pressure;Samples;Min_cycle;Max_cycle;Signal;HPM_P1;HPM_P2
2022/09/18 00:00:57;;;;;;;9.43;1.80;;;;;;;;;;5041916;28;20089;-58
2022/09/18 00:03:22;;;;;;;6.95;1.90;;;;;;;;;;5034670;28;20091;-58
2022/09/18 00:05:48;;;;;;;8.48;2.03;;;;;;;;;;5028927;28;20064;-59
2022/09/18 00:08:13;;;;;;;7.57;2.20;;;;;;;;;;5035054;28;20506;-58
2022/09/18 00:10:45;;;;;;;6.10;2.20;;;;;;;;;;5037787;28;20037;-58
2022/09/18 00:13:12;;;;;;;5.50;2.35;;;;;;;;;;5012097;28;20108;-57
2022/09/18 00:15:38;;;;;;;6.63;1.88;;;;;;;;;;5026863;28;20081;-56
2022/09/18 00:18:04;;;;;;;13.43;2.20;;;;;;;;;;5015649;28;20438;-58
2022/09/18 00:20:29;;;;;;;7.97;2.10;;;;;;;;;;5028955;28;20033;-57
2022/09/18 00:23:07;;;;;;;7.05;1.98;;;;;;;;;;5030342;28;20035;-57
2022/09/18 00:25:32;;;;;;;5.45;2.35;;;;;;;;;;5047436;28;20041;-57
2022/09/18 00:27:58;;;;;;;6.88;2.08;;;;;;;;;;5023454;28;20125;-57
2022/09/18 00:30:23;;;;;;;9.00;2.67;;;;;;;;;;5048234;28;20103;-59
2022/09/18 00:32:48;;;;;;;10.15;2.40;;;;;;;;;;5036565;28;20077;-60
2022/09/18 00:35:14;;;;;;;8.52;2.72;;;;;;;;;;5030253;28;20038;-57
2022/09/18 00:37:39;;;;;;;7.18;2.47;;;;;;;;;;5030388;28;20057;-57
2022/09/18 00:40:05;;;;;;;6.75;2.40;;;;;;;;;;5028098;28;20466;-57
2022/09/18 00:42:30;;;;;;;8.63;2.42;;;;;;;;;;5017159;28;20416;-57
2022/09/18 00:44:55;;;;;;;9.40;2.60;;;;;;;;;;5028381;28;20036;-59
2022/09/18 00:47:42;;;;;;;10.45;3.13;;;;;;;;;;5017476;28;20092;-57
2022/09/18 00:50:22;;;;;;;7.20;3.05;;;;;;;;;;5019197;28;20074;-57
2022/09/18 00:52:53;;;;;;;6.88;2.30;;;;;;;;;;5012206;28;20117;-59
2022/09/18 00:55:22;;;;;;;;;;;;;;;;;;5036940;28;20040;-58
2022/09/18 00:57:53;;;;;;;7.57;2.60;;;;;;;;;;5036885;28;19948;-59
2022/09/18 01:00:19;;;;;;;7.78;2.67;;;;;;;;;;5039817;28;20044;-59
2022/09/18 01:02:46;;;;;;;7.72;2.60;;;;;;;;;;5052755;28;20037;-59
2022/09/18 01:05:14;;;;;;;8.65;2.75;;;;;;;;;;5015900;28;20145;-61
2022/09/18 01:08:11;;;;;;;7.72;2.55;;;;;;;;;;5023671;28;20044;-59
2022/09/18 01:10:45;;;;;;;9.82;3.03;;;;;;;;;;5030153;28;20060;-57
2022/09/18 01:13:17;;;;;;;7.45;2.72;;;;;;;;;;5028486;28;20087;-57
2022/09/18 01:16:04;;;;;;;6.22;2.30;;;;;;;;;;5038324;28;20041;-59
2022/09/18 01:18:56;;;;;;;6.35;2.10;;;;;;;;;;5037981;28;20045;-57
2022/09/18 01:21:30;;;;;;;10.55;2.33;;;;;;;;;;5030061;28;20037;-56
2022/09/18 01:23:55;;;;;;;10.10;2.30;;;;;;;;;;5049597;28;20390;-59
2022/09/18 01:26:55;;;;;;;8.32;2.00;;;;;;;;;;5034113;28;20041;-57
2022/09/18 01:29:46;;;;;;;5.60;2.00;;;;;;;;;;5029835;28;20131;-57
2022/09/18 01:32:47;;;;;;;9.02;2.05;;;;;;;;;;5027886;28;20377;-57
2022/09/18 01:35:30;;;;;;;10.93;2.58;;;;;;;;;;5025561;28;20524;-57
2022/09/18 01:38:05;;;;;;;7.22;2.30;;;;;;;;;;4992989;28;20065;-59
2022/09/18 01:40:36;;;;;;;10.40;2.33;;;;;;;;;;5022057;28;20037;-57
2022/09/18 01:43:04;;;;;;;;;;;;;;;;;;5019273;28;20030;-57
2022/09/18 01:45:36;;;;;;;4.50;2.05;;;;;;;;;;5024556;28;19947;-61
2022/09/18 01:48:06;;;;;;;8.38;2.00;;;;;;;;;;5029522;28;20059;-57
2022/09/18 01:50:37;;;;;;;9.27;2.47;;;;;;;;;;5032344;28;20025;-57
2022/09/18 01:53:16;;;;;;;6.10;2.15;;;;;;;;;;5033920;28;20033;-57
2022/09/18 01:55:49;;;;;;;10.80;2.83;;;;;;;;;;5039094;28;20115;-57
2022/09/18 01:58:17;;;;;;;10.48;2.20;;;;;;;;;;5035006;28;20033;-58
2022/09/18 02:00:48;;;;;;;6.55;2.28;;;;;;;;;;5031833;28;20072;-57
2022/09/18 02:03:27;;;;;;;13.18;2.92;;;;;;;;;;5033281;28;20029;-59
2022/09/18 02:06:08;;;;;;;10.68;2.50;;;;;;;;;;5041623;28;20040;-59
2022/09/18 02:08:53;;;;;;;10.45;2.40;;;;;;;;;;5035239;28;20047;-58
2022/09/18 02:11:19;;;;;;;11.63;3.25;;;;;;;;;;5046227;28;20393;-58
2022/09/18 02:13:53;;;;;;;7.90;2.53;;;;;;;;;;5034176;28;20091;-58
2022/09/18 02:16:23;;;;;;;9.98;2.15;;;;;;;;;;5031810;28;20458;-58
2022/09/18 02:18:52;;;;;;;6.82;2.63;;;;;;;;;;5033778;28;20041;-59
2022/09/18 02:21:24;;;;;;;9.43;2.42;;;;;;;;;;5015163;28;20033;-60
2022/09/18 02:23:50;;;;;;;6.47;2.35;;;;;;;;;;5014942;28;20470;-61
2022/09/18 02:26:17;;;;;;;9.43;2.60;;;;;;;;;;5028357;28;20039;-58
2022/09/18 02:28:44;;;;;;;9.95;2.55;;;;;;;;;;5033006;28;20033;-61
2022/09/18 02:31:11;;;;;;;12.13;2.50;;;;;;;;;;5025578;28;20087;-59
2022/09/18 02:33:37;;;;;;;11.55;2.55;;;;;;;;;;5032725;28;20037;-59
2022/09/18 02:36:17;;;;;;;10.70;2.35;;;;;;;;;;5020469;28;20111;-58
2022/09/18 02:39:13;;;;;;;8.98;2.85;;;;;;;;;;5045740;28;20041;-58
2022/09/18 02:42:07;;;;;;;10.45;3.38;;;;;;;;;;5024325;28;20040;-60
2022/09/18 02:44:57;;;;;;;10.48;3.10;;;;;;;;;;5014485;28;20034;-58
2022/09/18 02:47:34;;;;;;;8.15;3.03;;;;;;;;;;5036278;28;20028;-60
2022/09/18 02:50:28;;;;;;;11.80;3.83;;;;;;;;;;5041098;28;20037;-57
2022/09/18 02:53:05;;;;;;;15.95;3.28;;;;;;;;;;5042892;28;20063;-59
2022/09/18 02:55:44;;;;;;;10.15;3.40;;;;;;;;;;5033325;28;20037;-57
2022/09/18 02:58:34;;;;;;;8.88;3.20;;;;;;;;;;5031388;28;20166;-57
2022/09/18 03:01:02;;;;;;;11.02;3.80;;;;;;;;;;5031671;28;20040;-58
2022/09/18 03:03:30;;;;;;;8.77;3.30;;;;;;;;;;5040815;28;20483;-57
2022/09/18 03:05:56;;;;;;;8.80;4.00;;;;;;;;;;5015527;28;20034;-59
2022/09/18 03:08:22;;;;;;;11.38;3.60;;;;;;;;;;5043408;28;20497;-57
2022/09/18 03:10:47;;;;;;;9.23;3.80;;;;;;;;;;5025484;28;20115;-60
2022/09/18 03:13:15;;;;;;;6.97;3.60;;;;;;;;;;5036324;28;20112;-58
2022/09/18 03:15:41;;;;;;;15.15;3.65;;;;;;;;;;5038560;28;20479;-58
2022/09/18 03:18:06;;;;;;;10.02;3.50;;;;;;;;;;5031096;28;20872;-57
2022/09/18 03:20:32;;;;;;;9.63;3.97;;;;;;;;;;5038932;28;20047;-57
2022/09/18 03:22:57;;;;;;;9.25;4.40;;;;;;;;;;5031886;28;20033;-59
2022/09/18 03:25:23;;;;;;;11.18;3.80;;;;;;;;;;5044337;28;20086;-55
2022/09/18 03:27:53;;;;;;;15.32;3.95;;;;;;;;;;5019153;28;20037;-59
2022/09/18 03:30:18;;;;;;;10.93;4.40;;;;;;;;;;5030320;28;20029;-60
2022/09/18 03:32:43;;;;;;;11.52;4.20;;;;;;;;;;5018845;28;20398;-61
2022/09/18 03:35:09;;;;;;;8.90;3.92;;;;;;;;;;5043778;28;20098;-61
2022/09/18 03:37:34;;;;;;;12.05;5.20;;;;;;;;;;5032549;28;20037;-57
2022/09/18 03:40:00;;;;;;;12.43;5.20;;;;;;;;;;5024883;28;20128;-56
2022/09/18 03:42:25;;;;;;;16.98;5.20;;;;;;;;;;5023266;28;20039;-55
2022/09/18 03:44:51;;;;;;;13.25;6.15;;;;;;;;;;5036001;28;20037;-60
2022/09/18 03:47:16;;;;;;;17.00;5.63;;;;;;;;;;5027598;28;20060;-56
2022/09/18 03:49:41;;;;;;;16.60;6.20;;;;;;;;;;5032077;28;20025;-57
2022/09/18 03:52:07;;;;;;;13.23;5.68;;;;;;;;;;5026726;28;20530;-55
2022/09/18 03:54:32;;;;;;;14.10;4.93;;;;;;;;;;5053070;28;20039;-54
2022/09/18 03:56:57;;;;;;;13.38;5.90;;;;;;;;;;5037753;28;20043;-56
2022/09/18 03:59:23;;;;;;;18.20;6.57;;;;;;;;;;5030300;28;20038;-53
2022/09/18 04:01:48;;;;;;;10.88;5.63;;;;;;;;;;5023145;28;20460;-59
2022/09/18 04:04:13;;;;;;;12.20;5.75;;;;;;;;;;5040104;28;20454;-53
2022/09/18 04:06:39;;;;;;;10.80;5.28;;;;;;;;;;5027408;28;20037;-56
2022/09/18 04:09:04;;;;;;;9.77;4.60;;;;;;;;;;5030329;28;20037;-54
2022/09/18 04:11:30;;;;;;;13.02;5.30;;;;;;;;;;5029266;28;20083;-52
2022/09/18 04:13:55;;;;;;;13.73;5.10;;;;;;;;;;5016468;28;20029;-56
2022/09/18 04:16:20;;;;;;;9.20;4.53;;;;;;;;;;5028416;28;20485;-57
2022/09/18 04:18:46;;;;;;;12.43;5.35;;;;;;;;;;5030723;28;20410;-55
2022/09/18 04:21:11;;;;;;;13.10;5.40;;;;;;;;;;5030947;28;20113;-57
2022/09/18 04:23:36;;;;;;;12.07;5.40;;;;;;;;;;5042791;28;20044;-54
2022/09/18 04:26:07;;;;;;;11.30;5.57;;;;;;;;;;5039711;28;20382;-53
2022/09/18 04:28:33;;;;;;;13.18;5.53;;;;;;;;;;5030039;28;20044;-55
2022/09/18 04:30:58;;;;;;;14.20;5.72;;;;;;;;;;5020658;28;20037;-57
2022/09/18 04:33:24;;;;;;;12.13;6.80;;;;;;;;;;5032146;28;20470;-57
2022/09/18 04:35:49;;;;;;;12.70;5.82;;;;;;;;;;5028657;28;20037;-60
2022/09/18 04:38:14;;;;;;;12.70;6.00;;;;;;;;;;5037242;28;20470;-57
2022/09/18 04:40:40;;;;;;;12.48;5.60;;;;;;;;;;5030316;28;20113;-54
2022/09/18 04:43:05;;;;;;;10.23;5.50;;;;;;;;;;5042235;28;20033;-56
2022/09/18 04:45:30;;;;;;;15.63;6.13;;;;;;;;;;5039751;28;20033;-56
2022/09/18 04:47:56;;;;;;;14.38;6.30;;;;;;;;;;5027332;28;20029;-55
2022/09/18 04:50:21;;;;;;;13.57;5.22;;;;;;;;;;5029827;28;20079;-57
2022/09/18 04:52:46;;;;;;;12.25;5.35;;;;;;;;;;5013540;28;20037;-55
2022/09/18 04:55:12;;;;;;;12.63;5.68;;;;;;;;;;5023872;28;20031;-57
2022/09/18 04:57:37;;;;;;;12.80;6.30;;;;;;;;;;5047782;28;20028;-55
2022/09/18 05:00:03;;;;;;;14.02;4.50;;;;;;;;;;5034894;28;20037;-56
2022/09/18 05:02:29;;;;;;;10.10;3.72;;;;;;;;;;5040530;28;20032;-53
2022/09/18 05:04:54;;;;;;;11.40;3.92;;;;;;;;;;5047126;28;20432;-58
2022/09/18 05:07:20;;;;;;;8.00;3.08;;;;;;;;;;5045222;28;20032;-56
2022/09/18 05:09:45;;;;;;;9.82;3.80;;;;;;;;;;5051520;28;20488;-56
2022/09/18 05:12:10;;;;;;;11.25;3.30;;;;;;;;;;5049164;28;20033;-57
2022/09/18 05:14:36;;;;;;;10.13;3.80;;;;;;;;;;5051795;28;20037;-57
2022/09/18 05:17:01;;;;;;;7.20;3.30;;;;;;;;;;5047671;28;20033;-56
2022/09/18 05:19:27;;;;;;;9.68;3.28;;;;;;;;;;5049914;28;20045;-55
2022/09/18 05:21:52;;;;;;;7.40;3.75;;;;;;;;;;5049279;28;20071;-59
2022/09/18 05:24:18;;;;;;;9.50;3.40;;;;;;;;;;5046877;28;20397;-56
2022/09/18 05:26:43;;;;;;;8.38;3.80;;;;;;;;;;5047500;28;20036;-53
2022/09/18 05:29:09;;;;;;;9.45;3.47;;;;;;;;;;5050591;28;20116;-54
2022/09/18 05:31:34;;;;;;;11.85;4.30;;;;;;;;;;5048626;28;20033;-60
2022/09/18 05:34:00;;;;;;;9.00;3.42;;;;;;;;;;5033878;28;20044;-65
2022/09/18 05:36:25;;;;;;;10.82;3.75;;;;;;;;;;5032296;28;20029;-64
2022/09/18 05:38:50;;;;;;;9.65;3.47;;;;;;;;;;5012371;28;20037;-66
2022/09/18 05:41:16;;;;;;;8.13;3.72;;;;;;;;;;5031198;28;20033;-61
2022/09/18 05:43:44;;;;;;;13.40;3.72;;;;;;;;;;5031469;28;20028;-61
2022/09/18 05:46:10;;;;;;;11.73;4.18;;;;;;;;;;5038552;28;20025;-61
2022/09/18 05:48:36;;;;;;;9.13;3.78;;;;;;;;;;5038930;28;20041;-62
2022/09/18 05:51:01;;;;;;;9.25;3.88;;;;;;;;;;5014973;28;20053;-62
2022/09/18 05:53:27;;;;;;;11.13;3.78;;;;;;;;;;5017516;28;20088;-61
2022/09/18 05:55:52;;;;;;;9.60;3.72;;;;;;;;;;5011273;28;20467;-62
2022/09/18 05:58:19;;;;;;;6.15;3.20;;;;;;;;;;5021014;28;20030;-61
2022/09/18 06:00:45;;;;;;;8.25;3.13;;;;;;;;;;5049362;28;20033;-62
2022/09/18 06:03:14;;;;;;;11.27;3.53;;;;;;;;;;5017497;28;20041;-61
2022/09/18 06:05:40;;;;;;;7.05;3.60;;;;;;;;;;5049556;28;20479;-60
2022/09/18 06:08:08;;;;;;;11.68;4.70;;;;;;;;;;5039592;28;20025;-60
2022/09/18 06:10:38;;;;;;;11.68;4.45;;;;;;;;;;5035059;28;20037;-60
2022/09/18 06:13:09;;;;;;;10.98;5.47;;;;;;;;;;5011204;28;20075;-61
2022/09/18 06:15:35;;;;;;;13.43;5.88;;;;;;;;;;5045519;28;20106;-61
2022/09/18 06:18:01;;;;;;;11.75;6.47;;;;;;;;;;5048080;28;20056;-61
2022/09/18 06:20:26;;;;;;;12.95;6.43;;;;;;;;;;5048633;28;20815;-60
2022/09/18 06:22:52;;;;;;;13.48;6.00;;;;;;;;;;5043769;28;20029;-62
2022/09/18 06:25:20;;;;;;;12.73;6.88;;;;;;;;;;5033310;28;20159;-62
2022/09/18 06:27:57;;;;;;;12.18;5.93;;;;;;;;;;5049640;28;20245;-61
2022/09/18 06:30:29;;;;;;;14.90;6.55;;;;;;;;;;5043862;28;20557;-61
2022/09/18 06:32:58;;;;;;;20.20;7.97;;;;;;;;;;5036721;28;20076;-62
2022/09/18 06:35:23;;;;;;;10.88;5.78;;;;;;;;;;5047913;28;20037;-62
2022/09/18 06:37:49;;;;;;;12.38;5.65;;;;;;;;;;5044058;28;20461;-62
2022/09/18 06:40:14;;;;;;;8.40;4.88;;;;;;;;;;5044508;28;20033;-62
2022/09/18 06:42:40;;;;;;;9.80;5.10;;;;;;;;;;5051280;28;20040;-61
2022/09/18 06:45:05;;;;;;;7.90;4.47;;;;;;;;;;5052424;28;20033;-60
2022/09/18 06:47:31;;;;;;;10.93;5.63;;;;;;;;;;5049291;28;20064;-60
2022/09/18 06:49:56;;;;;;;11.00;5.07;;;;;;;;;;5051205;28;20031;-60
2022/09/18 06:52:22;;;;;;;11.40;4.60;;;;;;;;;;5051570;28;20037;-60
2022/09/18 06:54:47;;;;;;;12.07;5.03;;;;;;;;;;5049218;28;20037;-60
2022/09/18 06:57:13;;;;;;;9.13;4.57;;;;;;;;;;5036379;28;20120;-60
2022/09/18 06:59:38;;;;;;;11.75;5.38;;;;;;;;;;5032810;28;20026;-62
2022/09/18 07:02:05;;;;;;;12.93;5.78;;;;;;;;;;5031221;28;20392;-61
2022/09/18 07:04:30;;;;;;;11.95;5.40;;;;;;;;;;5048334;28;20036;-60
2022/09/18 07:06:56;;;;;;;13.20;4.95;;;;;;;;;;5051136;28;20044;-62
2022/09/18 07:09:21;;;;;;;14.73;6.25;;;;;;;;;;5036046;28;20056;-60
2022/09/18 07:11:46;;;;;;;10.35;5.82;;;;;;;;;;5046785;28;21019;-62
2022/09/18 07:14:12;;;;;;;11.77;5.93;;;;;;;;;;5032172;28;20041;-62
2022/09/18 07:16:37;;;;;;;12.55;6.20;;;;;;;;;;5032232;28;20029;-60
2022/09/18 07:19:04;;;;;;;10.68;5.80;;;;;;;;;;5033658;28;20560;-62
2022/09/18 07:21:30;;;;;;;10.07;5.60;;;;;;;;;;5051535;28;20112;-61
2022/09/18 07:23:56;;;;;;;10.52;5.53;;;;;;;;;;5017499;28;20124;-59
2022/09/18 07:26:22;;;;;;;11.38;5.72;;;;;;;;;;5014091;28;20018;-62
2022/09/18 07:28:50;;;;;;;12.40;6.55;;;;;;;;;;5049595;28;20052;-60
2022/09/18 07:31:16;;;;;;;17.27;6.57;;;;;;;;;;5033748;28;20040;-61
2022/09/18 07:33:41;;;;;;;9.43;5.70;;;;;;;;;;5050790;28;20036;-60
2022/09/18 07:36:07;;;;;;;10.35;5.28;;;;;;;;;;5052577;28;20562;-60
2022/09/18 07:38:33;;;;;;;12.80;5.72;;;;;;;;;;5043305;28;20029;-60
2022/09/18 07:41:02;;;;;;;9.90;4.53;;;;;;;;;;5044038;28;20029;-61
2022/09/18 07:43:28;;;;;;;10.23;4.82;;;;;;;;;;5053321;28;20041;-60
2022/09/18 07:45:53;;;;;;;10.43;4.93;;;;;;;;;;5047400;28;20067;-61
2022/09/18 07:48:19;;;;;;;9.65;5.13;;;;;;;;;;5049772;28;20040;-61
2022/09/18 07:50:45;;;;;;;10.52;6.03;;;;;;;;;;5038685;28;20037;-61
2022/09/18 07:53:11;;;;;;;11.20;5.90;;;;;;;;;;5050549;28;20028;-61
2022/09/18 07:55:36;;;;;;;10.63;5.45;;;;;;;;;;5052762;28;20039;-62
2022/09/18 07:58:05;;;;;;;11.45;5.22;;;;;;;;;;5049767;28;20424;-62
2022/09/18 08:00:35;;;;;;;9.65;4.50;;;;;;;;;;5046301;28;20029;-61
2022/09/18 08:03:05;;;;;;;8.20;3.80;;;;;;;;;;5044921;28;20469;-61
2022/09/18 08:05:31;;;;;;;7.18;3.50;;;;;;;;;;5046815;28;20036;-61
2022/09/18 08:08:09;;;;;;;7.22;3.30;;;;;;;;;;5031786;28;20025;-62
2022/09/18 08:10:35;;;;;;;9.18;3.20;;;;;;;;;;5034244;28;20037;-62
2022/09/18 08:13:02;;;;;;;8.75;3.30;;;;;;;;;;5031434;28;20038;-62
2022/09/18 08:15:28;;;;;;;11.98;3.38;;;;;;;;;;5045356;28;20474;-59
2022/09/18 08:17:53;;;;;;;7.40;3.15;;;;;;;;;;5040302;28;20033;-61
2022/09/18 08:20:20;;;;;;;5.85;2.58;;;;;;;;;;5039346;28;20144;-59
2022/09/18 08:22:46;;;;;;;7.72;2.85;;;;;;;;;;5046974;28;20036;-60
2022/09/18 08:25:12;;;;;;;7.13;2.47;;;;;;;;;;5045450;28;20107;-60
2022/09/18 08:27:38;;;;;;;9.15;2.70;;;;;;;;;;5050024;28;20661;-60
2022/09/18 08:30:05;;;;;;;4.78;2.55;;;;;;;;;;5027327;28;20068;-61
2022/09/18 08:32:32;;;;;;;9.98;2.92;;;;;;;;;;5028107;28;20033;-60
2022/09/18 08:34:59;;;;;;;6.85;2.58;;;;;;;;;;5034279;28;20397;-61
2022/09/18 08:37:25;;;;;;;8.15;2.78;;;;;;;;;;5023106;28;20041;-60
2022/09/18 08:39:50;;;;;;;8.63;3.05;;;;;;;;;;5018850;28;20417;-63
2022/09/18 08:42:43;;;;;;;7.97;2.72;;;;;;;;;;5024653;28;20025;-61
2022/09/18 08:45:39;;;;;;;6.88;3.30;;;;;;;;;;5031372;28;20132;-61
2022/09/18 08:48:22;;;;;;;9.88;3.10;;;;;;;;;;5023241;28;20103;-60
2022/09/18 08:51:01;;;;;;;4.13;2.70;;;;;;;;;;5030528;28;20025;-61
2022/09/18 08:53:40;;;;;;;10.55;3.97;;;;;;;;;;5022442;28;20558;-61
2022/09/18 08:56:14;;;;;;;6.85;3.00;;;;;;;;;;5012413;28;20034;-62
2022/09/18 08:58:47;;;;;;;5.80;3.03;;;;;;;;;;5023946;28;20112;-60
2022/09/18 09:01:18;;;;;;;7.75;2.75;;;;;;;;;;5028688;28;20033;-60
2022/09/18 09:03:54;;;;;;;6.22;3.20;;;;;;;;;;5031358;28;20080;-61
2022/09/18 09:06:25;;;;;;;7.55;3.95;;;;;;;;;;5030753;28;20079;-62
2022/09/18 09:09:16;;;;;;;5.93;2.65;;;;;;;;;;5024245;28;20048;-63
2022/09/18 09:12:12;;;;;;;7.68;3.03;;;;;;;;;;5025274;28;20033;-61
2022/09/18 09:14:59;;;;;;;6.47;2.60;;;;;;;;;;5012606;28;20128;-62
2022/09/18 09:17:37;;;;;;;5.88;2.65;;;;;;;;;;5028936;28;20026;-61
2022/09/18 09:20:21;;;;;;;4.97;2.30;;;;;;;;;;5013995;28;20061;-61
2022/09/18 09:22:58;;;;;;;5.65;2.65;;;;;;;;;;5010979;28;20371;-61
2022/09/18 09:25:48;;;;;;;6.68;2.90;;;;;;;;;;5009562;28;20125;-61
2022/09/18 09:28:22;;;;;;;6.63;3.00;;;;;;;;;;4983921;28;20509;-61
2022/09/18 09:30:54;;;;;;;8.25;2.80;;;;;;;;;;5011257;28;20493;-62
2022/09/18 09:33:38;;;;;;;5.82;2.00;;;;;;;;;;5011205;28;20482;-62
2022/09/18 09:36:14;;;;;;;3.90;2.17;;;;;;;;;;5010880;28;20038;-62
2022/09/18 09:39:02;;;;;;;5.57;2.90;;;;;;;;;;5000043;28;20064;-59
2022/09/18 09:41:33;;;;;;;4.63;2.10;;;;;;;;;;5003205;28;20065;-60
2022/09/18 09:44:19;;;;;;;5.22;2.10;;;;;;;;;;5009441;28;20041;-60
2022/09/18 09:46:54;;;;;;;5.90;1.85;;;;;;;;;;4998202;28;20081;-60
2022/09/18 09:49:24;;;;;;;2.90;1.92;;;;;;;;;;5010622;28;20438;-61
2022/09/18 09:52:09;;;;;;;5.63;2.20;;;;;;;;;;4994850;28;20045;-62
2022/09/18 09:54:35;;;;;;;7.38;2.40;;;;;;;;;;4999855;28;20049;-61
2022/09/18 09:57:15;;;;;;;4.45;1.98;;;;;;;;;;4993626;28;20032;-60
2022/09/18 10:00:26;;;;;;;3.17;1.60;;;;;;;;;;5010270;28;20482;-61
2022/09/18 10:02:55;;;;;;;6.30;2.10;;;;;;;;;;4992181;28;20060;-62
2022/09/18 10:05:39;;;;;;;5.07;1.92;;;;;;;;;;5010526;28;20041;-61
2022/09/18 10:08:34;;;;;;;3.25;1.52;;;;;;;;;;5008591;28;20037;-61
2022/09/18 10:11:01;;;;;;;3.47;1.70;;;;;;;;;;4987777;28;20062;-61
2022/09/18 10:13:35;;;;;;;4.97;1.80;;;;;;;;;;5005743;28;20045;-61
2022/09/18 10:16:13;;;;;;;5.47;1.70;;;;;;;;;;5008328;28;20478;-61
2022/09/18 10:18:44;;;;;;;4.07;2.08;;;;;;;;;;5017023;28;20053;-61
2022/09/18 10:21:14;;;;;;;6.78;2.47;;;;;;;;;;5032668;28;20667;-62
2022/09/18 10:23:41;;;;;;;5.93;2.00;;;;;;;;;;5024052;28;20390;-61
2022/09/18 10:26:25;;;;;;;5.93;2.20;;;;;;;;;;5033850;28;20037;-61
2022/09/18 10:28:50;;;;;;;5.70;1.73;;;;;;;;;;5015776;28;20021;-61
2022/09/18 10:31:16;;;;;;;4.55;1.70;;;;;;;;;;5028856;28;20385;-61
2022/09/18 10:33:47;;;;;;;5.20;1.88;;;;;;;;;;5029217;28;20029;-62
2022/09/18 10:36:22;;;;;;;4.50;1.70;;;;;;;;;;5029932;28;20037;-61
2022/09/18 10:38:48;;;;;;;7.00;1.92;;;;;;;;;;5033497;28;20034;-62
2022/09/18 10:41:28;;;;;;;3.35;1.52;;;;;;;;;;5033840;28;20060;-61
2022/09/18 10:44:03;;;;;;;3.10;1.50;;;;;;;;;;5032020;28;20076;-61
2022/09/18 10:46:32;;;;;;;4.88;1.70;;;;;;;;;;5032310;28;20056;-62
2022/09/18 10:49:03;;;;;;;7.30;2.38;;;;;;;;;;5031851;28;20040;-63
2022/09/18 10:51:28;;;;;;;;;;;;;;;;;;5034323;28;20034;-60
2022/09/18 10:54:03;;;;;;;7.22;2.00;;;;;;;;;;5023685;28;19971;-60
2022/09/18 10:56:29;;;;;;;6.35;1.80;;;;;;;;;;5017569;28;20036;-62
2022/09/18 10:58:55;;;;;;;4.90;1.40;;;;;;;;;;5030596;28;20037;-62
2022/09/18 11:01:24;;;;;;;6.55;1.70;;;;;;;;;;5032497;28;20036;-62
2022/09/18 11:04:04;;;;;;;3.92;1.65;;;;;;;;;;5033070;28;20037;-63
2022/09/18 11:06:33;;;;;;;3.50;1.63;;;;;;;;;;5016691;28;20033;-60
2022/09/18 11:09:01;;;;;;;5.15;1.73;;;;;;;;;;5022934;28;20390;-61
2022/09/18 11:11:34;;;;;;;6.70;1.60;;;;;;;;;;5013027;28;20474;-61
2022/09/18 11:14:03;;;;;;;4.20;1.83;;;;;;;;;;5014490;28;20030;-61
2022/09/18 11:16:31;;;;;;;6.97;1.75;;;;;;;;;;5011960;28;21621;-61
2022/09/18 11:19:06;;;;;;;4.85;1.70;;;;;;;;;;5031752;28;20045;-60
2022/09/18 11:21:31;;;;;;;4.05;1.58;;;;;;;;;;5033288;28;20377;-61
2022/09/18 11:24:05;;;;;;;1.75;1.25;;;;;;;;;;5031931;28;20033;-61
2022/09/18 11:26:31;;;;;;;2.88;1.20;;;;;;;;;;5032831;28;20164;-62
2022/09/18 11:29:01;;;;;;;3.25;1.40;;;;;;;;;;5024569;28;20021;-61
2022/09/18 11:31:38;;;;;;;4.03;1.30;;;;;;;;;;5031842;28;20049;-61
2022/09/18 11:34:09;;;;;;;2.20;1.10;;;;;;;;;;5022743;28;20040;-61
2022/09/18 11:36:39;;;;;;;3.92;1.25;;;;;;;;;;5013557;28;20036;-61
2022/09/18 11:39:12;;;;;;;6.00;1.50;;;;;;;;;;5013479;28;20153;-61
2022/09/18 11:41:39;;;;;;;2.33;1.20;;;;;;;;;;5013616;28;20041;-61
2022/09/18 11:44:20;;;;;;;3.00;1.30;;;;;;;;;;5013006;28;20558;-61
2022/09/18 11:46:45;;;;;;;;;;;;;;;;;;5014013;28;20069;-61
2022/09/18 11:49:18;;;;;;;4.13;1.38;;;;;;;;;;5019440;28;20261;-61
2022/09/18 11:51:46;;;;;;;4.15;1.48;;;;;;;;;;5026082;28;20030;-61
2022/09/18 11:54:21;;;;;;;4.65;1.40;;;;;;;;;;5012985;28;20762;-62
2022/09/18 11:56:51;;;;;;;3.42;1.30;;;;;;;;;;5018340;28;20056;-62
2022/09/18 11:59:37;;;;;;;5.50;1.60;;;;;;;;;;5042371;28;20382;-62
2022/09/18 12:02:18;;;;;;;2.72;1.40;;;;;;;;;;5029863;28;20125;-60
2022/09/18 12:04:51;;;;;;;5.38;1.50;;;;;;;;;;5027699;28;20403;-59
2022/09/18 12:07:40;;;;;;;2.22;1.45;;;;;;;;;;5013278;28;20029;-61
2022/09/18 12:10:24;;;;;;;3.85;1.38;;;;;;;;;;4993026;28;20051;-61
2022/09/18 12:13:01;;;;;;;1.55;1.20;;;;;;;;;;5012598;28;20109;-61
2022/09/18 12:15:36;;;;;;;1.88;1.20;;;;;;;;;;5026547;28;20037;-61
2022/09/18 12:18:11;;;;;;;2.78;1.60;;;;;;;;;;5014656;28;20163;-60
2022/09/18 12:20:46;;;;;;;5.22;1.98;;;;;;;;;;5021549;28;20037;-60
2022/09/18 12:23:19;;;;;;;3.97;1.75;;;;;;;;;;5031019;28;20289;-61
2022/09/18 12:25:58;;;;;;;2.70;1.63;;;;;;;;;;5019066;28;20117;-60
2022/09/18 12:28:56;;;;;;;4.10;1.75;;;;;;;;;;5013164;28;20105;-60
2022/09/18 12:31:32;;;;;;;3.17;1.60;;;;;;;;;;5030571;28;20112;-62
2022/09/18 12:34:27;;;;;;;1.98;1.25;;;;;;;;;;5030190;28;20441;-60
2022/09/18 12:36:58;;;;;;;7.25;2.65;;;;;;;;;;5025838;28;20045;-63
2022/09/18 12:39:35;;;;;;;3.58;2.17;;;;;;;;;;5028993;28;20037;-61
2022/09/18 12:42:22;;;;;;;3.95;1.95;;;;;;;;;;5030234;28;20041;-62
2022/09/18 12:45:32;;;;;;;4.55;1.35;;;;;;;;;;5041308;28;20044;-62
2022/09/18 12:48:08;;;;;;;6.20;1.63;;;;;;;;;;5017678;28;20053;-61
2022/09/18 12:50:40;;;;;;;5.03;1.40;;;;;;;;;;5044609;28;20028;-61
2022/09/18 12:53:29;;;;;;;6.20;1.80;;;;;;;;;;5046109;28;20041;-60
2022/09/18 12:56:06;;;;;;;4.07;1.17;;;;;;;;;;5051123;28;20033;-62
2022/09/18 12:58:56;;;;;;;4.93;1.30;;;;;;;;;;5030983;28;20068;-60
2022/09/18 13:01:31;;;;;;;1.98;1.00;;;;;;;;;;5033688;28;20041;-60
2022/09/18 13:04:07;;;;;;;2.60;1.00;;;;;;;;;;5051053;28;20124;-60
2022/09/18 13:06:52;;;;;;;2.45;1.20;;;;;;;;;;5029410;28;20022;-61
2022/09/18 13:09:30;;;;;;;2.50;1.35;;;;;;;;;;5034562;28;20037;-60
2022/09/18 13:12:11;;;;;;;3.05;1.30;;;;;;;;;;5025504;28;20081;-61
2022/09/18 13:14:44;;;;;;;2.38;1.20;;;;;;;;;;5033176;28;20037;-61
2022/09/18 13:17:14;;;;;;;6.75;1.60;;;;;;;;;;5031709;28;20462;-62
2022/09/18 13:19:47;;;;;;;3.78;1.20;;;;;;;;;;5040653;28;20061;-61
2022/09/18 13:22:16;;;;;;;2.70;1.45;;;;;;;;;;4973835;28;20080;-63
2022/09/18 13:24:44;;;;;;;4.63;1.08;;;;;;;;;;5029213;28;20038;-62
2022/09/18 13:27:14;;;;;;;4.93;1.40;;;;;;;;;;5044371;28;20037;-62
2022/09/18 13:29:47;;;;;;;2.08;1.15;;;;;;;;;;5033153;28;20119;-63
2022/09/18 13:32:29;;;;;;;5.22;1.40;;;;;;;;;;5034974;28;20127;-61
2022/09/18 13:35:00;;;;;;;2.83;1.35;;;;;;;;;;5026462;28;20040;-62
2022/09/18 13:37:27;;;;;;;3.38;1.20;;;;;;;;;;5049196;28;20509;-62
2022/09/18 13:40:26;;;;;;;4.53;1.55;;;;;;;;;;5029685;28;20041;-62
2022/09/18 13:42:52;;;;;;;3.25;1.10;;;;;;;;;;5035598;28;20025;-65
2022/09/18 13:45:25;;;;;;;5.55;1.67;;;;;;;;;;5046298;28;20168;-61
2022/09/18 13:48:15;;;;;;;4.95;1.42;;;;;;;;;;5033801;28;20056;-63
2022/09/18 13:50:53;;;;;;;4.32;1.40;;;;;;;;;;5023746;28;20032;-61
2022/09/18 13:54:09;;;;;;;3.70;1.40;;;;;;;;;;5035476;28;20037;-62
2022/09/18 13:57:09;;;;;;;4.05;1.60;;;;;;;;;;4989072;28;20054;-65
2022/09/18 13:59:51;;;;;;;5.28;2.25;;;;;;;;;;5028845;28;20050;-61
2022/09/18 14:02:32;;;;;;;2.95;1.58;;;;;;;;;;5024473;28;20036;-62
2022/09/18 14:05:23;;;;;;;4.90;1.90;;;;;;;;;;5033253;28;20033;-62
2022/09/18 14:07:55;;;;;;;3.58;1.67;;;;;;;;;;5037302;28;20123;-63
2022/09/18 14:10:24;;;;;;;4.68;1.52;;;;;;;;;;5032267;28;20052;-60
2022/09/18 14:13:39;;;;;;;4.68;1.65;;;;;;;;;;5042460;28;20381;-64
2022/09/18 14:16:24;;;;;;;2.53;1.30;;;;;;;;;;5041348;28;20409;-64
2022/09/18 14:19:22;;;;;;;3.92;1.10;;;;;;;;;;5027280;28;20064;-64
2022/09/18 14:21:47;;;;;;;3.78;1.30;;;;;;;;;;5011486;28;20046;-61
2022/09/18 14:24:56;;;;;;;3.92;1.30;;;;;;;;;;5007808;28;20098;-61
2022/09/18 14:27:52;;;;;;;3.33;1.48;;;;;;;;;;4951464;29;20046;-61
2022/09/18 14:30:21;;;;;;;3.15;1.20;;;;;;;;;;5006288;28;20038;-61
2022/09/18 14:33:01;;;;;;;3.05;1.17;;;;;;;;;;5011959;28;20462;-62
2022/09/18 14:35:32;;;;;;;2.33;1.10;;;;;;;;;;5015633;28;20061;-61
2022/09/18 14:37:58;;;;;;;4.15;1.70;;;;;;;;;;5015356;28;20260;-61
2022/09/18 14:40:26;;;;;;;4.07;1.23;;;;;;;;;;5012901;28;20108;-61
2022/09/18 14:42:51;;;;;;;3.28;1.40;;;;;;;;;;5014419;28;20037;-63
2022/09/18 14:45:30;;;;;;;2.70;1.40;;;;;;;;;;5031051;28;20087;-60
2022/09/18 14:47:57;;;;;;;3.05;1.30;;;;;;;;;;5011744;28;20053;-61
2022/09/18 14:50:27;;;;;;;4.55;1.33;;;;;;;;;;5015186;28;20125;-60
2022/09/18 14:52:54;;;;;;;6.53;1.60;;;;;;;;;;5009600;28;20034;-61
2022/09/18 14:55:24;;;;;;;4.43;1.40;;;;;;;;;;5014488;28;20064;-61
2022/09/18 14:58:07;;;;;;;6.00;1.40;;;;;;;;;;5018438;28;20038;-63
2022/09/18 15:00:35;;;;;;;1.88;1.10;;;;;;;;;;5024628;28;20045;-61
2022/09/18 15:03:17;;;;;;;3.72;1.40;;;;;;;;;;5011355;28;20112;-61
2022/09/18 15:05:42;;;;;;;4.93;1.50;;;;;;;;;;5022559;28;20038;-60
2022/09/18 15:08:16;;;;;;;7.28;1.83;;;;;;;;;;5019103;28;20109;-60
2022/09/18 15:10:46;;;;;;;4.38;1.58;;;;;;;;;;5021311;28;20114;-60